Falls Church, VA

3:38 AM EST on December 28, 2014 (GMT -0500)
Backyard Weather | Change Station
CLOSE
Current Station
Personal Weather Station
Location: Falls Church, VA
Elevation: 334 ft
Nearby Weather Stations

Elev 334 ft 38.87 °N, 77.20 °W | Updated 5 minutes ago

Mostly Cloudy
Mostly Cloudy
--
Feels Like --
N
-
Wind Variable Wind from North

Today
High -- | Low -- °F
--% Chance of Precip.
Yesterday
High -- | Low -- °F
Precip. -- in
7:26 AM 4:54 PM
Waxing Crescent, 45% visible
Pressure 30.00 in
Visibility 10.0 miles
Clouds Few 9000 ft
Mostly Cloudy 13000 ft
Mostly Cloudy 22000 ft
Dew Point Not available.
Humidity Not available.
Rainfall 0.00 in
Snow Depth Not available.
UV 0 out of 12
Pollen .10 out of 12
Air Quality Not available.
Flu Activity Not available.
METAR KDCA 280752Z 19008KT 10SM FEW090 BKN130 BKN220 09/03 A2999 RMK AO2 SLP157 T00940033

More Conditions Fewer Conditions

Pressure 30.00 in
Visibility 10.0 miles
Clouds Few 9000 ft
Mostly Cloudy 13000 ft
Mostly Cloudy 22000 ft
Dew Point Not available.
Humidity Not available.
Rainfall 0.00 in
Snow Depth Not available.
UV 0 out of 12
Pollen .10 out of 12
Air Quality Not available.
Flu Activity Not available.
METAR KDCA 280752Z 19008KT 10SM FEW090 BKN130 BKN220 09/03 A2999 RMK AO2 SLP157 T00940033

More Conditions Fewer Conditions

10-Day Weather Forecast

Almanac

Astronomy

Dec. 28, 2014 Rise Set
Actual Time
Civil Twilight
Nautical Twilight
Astronomical Twilight
Moon
Length of Visible Light
Length of Day
Tomorrow will be .
, % of the Moon is Illuminated

Today's Extremes

State Highs State Lows

Community

WunderPhotos

Upload Photos

1,781,210 photos uploaded!

WunderBlogs® & News

Nearby

Air Quality

  Air Quality AQ Index Pollutant
Not available.

Snow Depth

Station Depth Elevation

Earthquake Activity

City Distance Mag. Time & Date
Minimum magnitude displayed is 2.5.

Coastal Water Temperatures

Place Temperature

Nearby Weather Stations